Terminal Aerodrome Forecast
Issued by NWS

Home | Current Version | Previous Version | Text Only | Print | Product List | Glossary On
Versions: 1 2 3 4 5 6 7 8 9 10 11 12 13 14 15 16 17 18 19 20 21 22 23 24 25 26 27 28 29 30
000
FTUS45 KPSR 300700 AAA
TAFIWA
TAF AMD
KIWA 300736Z 3008/3106 VRB04KT 5SM -RA BKN050 OVC090
      TEMPO 3008/3009 3SM -RA BR
     FM300900 12004KT 4SM -RA BR BKN008 OVC015
     FM301900 07010KT 6SM -RA BR SCT008 BKN025 OVC035
      AMD LTD TO CLD VIS AND WIND TIL 301300=

USA.gov is the U.S. government's official web portal to all federal, state and local government web resources and services.